createdAt,value
2017-09-04T00:02:09.434Z,2.50
2017-09-04T00:04:37.125Z,2.73
2017-09-04T00:07:04.772Z,2.80
2017-09-04T00:09:32.435Z,1.97
2017-09-04T00:12:00.181Z,2.30
2017-09-04T00:14:27.805Z,2.20
2017-09-04T00:16:55.450Z,1.97
2017-09-04T00:19:23.221Z,2.33
2017-09-04T00:21:50.891Z,2.65
2017-09-04T00:24:18.613Z,2.03
2017-09-04T00:26:46.285Z,2.90
2017-09-04T00:29:14.005Z,2.40
2017-09-04T00:31:41.651Z,2.80
2017-09-04T00:34:09.365Z,2.57
2017-09-04T00:36:37.014Z,2.70
2017-09-04T00:39:04.788Z,2.63
2017-09-04T00:41:32.493Z,2.50
2017-09-04T00:44:00.142Z,2.70
2017-09-04T00:46:27.832Z,3.20
2017-09-04T00:48:55.575Z,2.43
2017-09-04T00:51:23.322Z,2.67
2017-09-04T00:53:50.982Z,2.27
2017-09-04T00:56:18.718Z,2.83
2017-09-04T00:58:46.461Z,2.53
2017-09-04T01:01:14.085Z,2.73
2017-09-04T01:03:41.852Z,3.13
2017-09-04T01:06:09.525Z,2.97
2017-09-04T01:08:37.245Z,2.90
2017-09-04T01:11:04.949Z,3.10
2017-09-04T01:13:32.637Z,2.70
2017-09-04T01:16:00.291Z,2.37
2017-09-04T01:18:28.030Z,2.47
2017-09-04T01:20:55.711Z,1.87
2017-09-04T01:23:23.341Z,2.50
2017-09-04T01:25:51.137Z,2.60
2017-09-04T01:28:18.766Z,2.43
2017-09-04T01:30:46.460Z,2.70
2017-09-04T01:33:14.178Z,2.80
2017-09-04T01:35:41.822Z,2.37
2017-09-04T01:38:09.498Z,2.60
2017-09-04T01:40:37.194Z,1.80
2017-09-04T01:43:04.821Z,2.10
2017-09-04T01:45:32.534Z,2.00
2017-09-04T01:48:00.280Z,2.45
2017-09-04T01:50:28.198Z,2.00
2017-09-04T01:52:55.858Z,2.30
2017-09-04T01:55:23.537Z,2.00
2017-09-04T01:57:51.175Z,2.50
2017-09-04T02:00:18.802Z,2.03
2017-09-04T02:02:46.562Z,2.80
2017-09-04T02:05:14.210Z,2.60
2017-09-04T02:07:41.842Z,2.22
2017-09-04T02:10:09.573Z,2.45
2017-09-04T02:12:37.487Z,2.60
2017-09-04T02:15:05.123Z,2.10
2017-09-04T02:17:32.840Z,3.28
2017-09-04T02:20:00.470Z,2.20
2017-09-04T02:22:28.097Z,2.80
2017-09-04T02:24:55.880Z,2.25
2017-09-04T02:27:23.506Z,1.95
2017-09-04T02:29:51.190Z,2.62
2017-09-04T02:32:18.891Z,2.45
2017-09-04T02:34:46.524Z,2.20
2017-09-04T02:37:14.205Z,3.12
2017-09-04T02:39:41.953Z,3.03
2017-09-04T02:42:09.597Z,2.70
2017-09-04T02:44:37.231Z,3.58
2017-09-04T02:47:04.937Z,2.53
2017-09-04T02:49:32.578Z,3.12
2017-09-04T02:52:00.214Z,3.15
2017-09-04T02:54:27.910Z,2.35
2017-09-04T02:56:55.546Z,2.08
2017-09-04T02:59:23.181Z,2.62
2017-09-04T03:01:51.066Z,2.10
2017-09-04T03:04:18.702Z,3.10
2017-09-04T03:06:46.337Z,2.05
2017-09-04T03:09:14.123Z,2.80
2017-09-04T03:11:41.782Z,2.80
2017-09-04T03:14:09.505Z,2.95
2017-09-04T03:16:37.241Z,2.55
2017-09-04T03:19:04.925Z,3.00
2017-09-04T03:21:32.634Z,3.55
2017-09-04T03:24:00.379Z,2.67
2017-09-04T03:26:28.237Z,2.62
2017-09-04T03:28:55.939Z,2.80
2017-09-04T03:31:23.713Z,3.53
2017-09-04T03:33:51.475Z,2.70
2017-09-04T03:36:19.222Z,3.40
2017-09-04T03:38:47.071Z,3.33
2017-09-04T03:41:14.806Z,2.72
2017-09-04T03:43:42.568Z,2.12
2017-09-04T03:46:10.385Z,2.35
2017-09-04T03:48:38.162Z,2.35
2017-09-04T03:51:05.907Z,2.40
2017-09-04T03:53:33.793Z,2.80
2017-09-04T03:56:01.558Z,3.20
2017-09-04T03:58:29.314Z,2.80
2017-09-04T04:00:57.081Z,2.65
2017-09-04T04:03:24.854Z,3.50
2017-09-04T04:05:52.600Z,2.75
2017-09-04T04:08:20.454Z,3.00
2017-09-04T04:10:48.129Z,3.80
2017-09-04T04:13:15.885Z,3.60
2017-09-04T04:15:43.758Z,3.58
2017-09-04T04:18:11.410Z,3.83
2017-09-04T04:20:39.081Z,3.37
2017-09-04T04:23:06.885Z,3.25
2017-09-04T04:25:34.534Z,2.78
2017-09-04T04:28:02.222Z,3.70
2017-09-04T04:30:30.012Z,2.85
2017-09-04T04:32:57.720Z,2.42
2017-09-04T04:35:25.364Z,2.33
2017-09-04T04:37:53.058Z,4.30
2017-09-04T04:40:20.698Z,2.80
2017-09-04T04:42:48.339Z,4.25
2017-09-04T04:45:16.032Z,2.60
2017-09-04T04:47:43.666Z,4.75
2017-09-04T04:50:11.302Z,4.35
2017-09-04T04:52:38.990Z,4.12
2017-09-04T04:55:06.625Z,2.70
2017-09-04T04:57:34.270Z,3.35
2017-09-04T05:00:01.954Z,3.25
2017-09-04T05:02:29.661Z,3.20
2017-09-04T05:04:57.289Z,3.08
2017-09-04T05:07:24.979Z,3.30
2017-09-04T05:09:52.615Z,3.10
2017-09-04T05:12:20.243Z,3.70
2017-09-04T05:14:48.093Z,4.00
2017-09-04T05:17:15.735Z,4.15
2017-09-04T05:19:43.381Z,2.90
2017-09-04T05:22:11.130Z,4.97
2017-09-04T05:24:38.771Z,3.95
2017-09-04T05:27:06.418Z,3.60
2017-09-04T05:29:34.102Z,3.85
2017-09-04T05:32:01.811Z,3.28
2017-09-04T05:34:29.458Z,3.30
2017-09-04T05:36:57.158Z,3.22
2017-09-04T05:39:24.852Z,3.37
2017-09-04T05:41:52.486Z,4.10
2017-09-04T05:44:20.236Z,3.92
2017-09-04T05:46:47.989Z,3.40
2017-09-04T05:49:15.682Z,3.95
2017-09-04T05:51:43.380Z,3.97
2017-09-04T05:54:11.025Z,4.00
2017-09-04T05:56:38.773Z,3.83
2017-09-04T05:59:06.623Z,3.00
2017-09-04T06:01:34.268Z,3.87
2017-09-04T06:04:02.015Z,2.80
2017-09-04T06:06:29.702Z,2.90
2017-09-04T06:08:57.410Z,3.07
2017-09-04T06:11:25.157Z,3.07
2017-09-04T06:13:52.846Z,3.17
2017-09-04T06:16:20.526Z,3.10
2017-09-04T06:18:48.705Z,2.97
2017-09-04T06:21:16.401Z,3.20
2017-09-04T06:23:44.097Z,2.70
2017-09-04T06:26:11.739Z,2.73
2017-09-04T06:28:39.426Z,2.60
2017-09-04T06:31:07.057Z,2.60
2017-09-04T06:33:34.779Z,2.90
2017-09-04T06:36:02.670Z,3.40
2017-09-04T06:38:30.683Z,3.37
2017-09-04T06:40:58.318Z,3.43
2017-09-04T06:43:26.077Z,3.07
2017-09-04T06:45:53.714Z,3.50
2017-09-04T06:48:21.367Z,3.27
2017-09-04T06:50:49.116Z,3.13
2017-09-04T06:53:16.749Z,2.80
2017-09-04T06:55:44.377Z,2.87
2017-09-04T06:58:12.063Z,3.20
2017-09-04T07:00:39.796Z,2.93
2017-09-04T07:03:07.543Z,3.00
2017-09-04T07:05:35.289Z,3.70
2017-09-04T07:08:02.934Z,3.23
2017-09-04T07:10:30.580Z,2.87
2017-09-04T07:12:58.265Z,2.80
2017-09-04T07:15:25.902Z,2.57
2017-09-04T07:17:53.535Z,3.43
2017-09-04T07:20:21.233Z,3.10
2017-09-04T07:22:48.865Z,2.83
2017-09-04T07:25:16.498Z,2.30
2017-09-04T07:27:44.301Z,2.70
2017-09-04T07:30:12.048Z,2.13
2017-09-04T07:32:39.687Z,2.83
2017-09-04T07:35:07.373Z,2.20
2017-09-04T07:37:35.006Z,3.10
2017-09-04T07:40:02.640Z,2.33
2017-09-04T07:42:30.476Z,2.57
2017-09-04T07:44:58.222Z,2.83
2017-09-04T07:47:25.858Z,2.40
2017-09-04T07:49:53.639Z,2.00
2017-09-04T07:52:21.723Z,2.10
2017-09-04T07:54:49.346Z,2.40
2017-09-04T07:57:17.064Z,2.43
2017-09-04T07:59:44.811Z,2.20
2017-09-04T08:02:12.775Z,2.27
2017-09-04T08:04:40.466Z,2.40
2017-09-04T08:07:08.151Z,2.50
2017-09-04T08:09:35.801Z,2.87
2017-09-04T08:12:03.547Z,2.63
2017-09-04T08:14:31.295Z,2.67
2017-09-04T08:16:58.939Z,2.37
2017-09-04T08:19:26.689Z,3.90
2017-09-04T08:21:54.333Z,2.50
2017-09-04T08:24:22.080Z,2.40
2017-09-04T08:26:49.930Z,2.60
2017-09-04T08:29:17.557Z,2.60
2017-09-04T08:31:45.323Z,2.37
2017-09-04T08:34:13.172Z,2.13
2017-09-04T08:36:40.816Z,2.27
2017-09-04T08:39:08.449Z,2.30
2017-09-04T08:41:36.208Z,2.33
2017-09-04T08:44:03.857Z,2.40
2017-09-04T08:46:31.498Z,2.80
2017-09-04T08:48:59.306Z,2.20
2017-09-04T08:51:26.997Z,2.67
2017-09-04T08:53:54.670Z,2.10
2017-09-04T08:56:22.362Z,2.30
2017-09-04T08:58:50.018Z,2.00
2017-09-04T09:01:18.087Z,2.77
2017-09-04T09:03:45.794Z,2.63
2017-09-04T09:06:13.430Z,2.20
2017-09-04T09:08:41.059Z,2.07
2017-09-04T09:11:08.847Z,2.20
2017-09-04T09:13:36.482Z,2.40
2017-09-04T09:16:04.160Z,2.47
2017-09-04T09:18:31.959Z,2.13
2017-09-04T09:20:59.609Z,2.20
2017-09-04T09:23:27.303Z,2.20
2017-09-04T09:25:55.056Z,1.97
2017-09-04T09:28:22.742Z,1.90
2017-09-04T09:30:50.421Z,3.00
2017-09-04T09:33:18.098Z,2.00
2017-09-04T09:35:45.834Z,1.50
2017-09-04T09:38:13.466Z,2.27
2017-09-04T09:40:41.226Z,1.90
2017-09-04T09:43:08.853Z,2.50
2017-09-04T09:45:36.515Z,2.33
2017-09-04T09:48:04.213Z,2.33
2017-09-04T09:50:31.942Z,3.10
2017-09-04T09:52:59.617Z,2.23
2017-09-04T09:55:27.630Z,2.50
2017-09-04T09:57:55.409Z,1.80
2017-09-04T10:00:23.183Z,2.97
2017-09-04T10:02:51.019Z,2.47
2017-09-04T10:05:18.811Z,1.83
2017-09-04T10:07:46.495Z,2.50
2017-09-04T10:10:14.296Z,2.20
2017-09-04T10:12:41.973Z,2.37
2017-09-04T10:15:09.657Z,2.20
2017-09-04T10:17:37.436Z,2.43
2017-09-04T10:20:05.198Z,1.90
2017-09-04T10:22:32.983Z,2.30
2017-09-04T10:25:00.798Z,1.90
2017-09-04T10:27:28.493Z,2.20
2017-09-04T10:29:56.174Z,2.27
2017-09-04T10:32:23.902Z,2.20
2017-09-04T10:34:51.570Z,2.40
2017-09-04T10:37:19.314Z,3.23
2017-09-04T10:39:47.059Z,2.40
2017-09-04T10:42:14.738Z,1.97
2017-09-04T10:44:42.453Z,2.00
2017-09-04T10:47:10.200Z,2.57
2017-09-04T10:49:37.886Z,2.53
2017-09-04T10:52:05.593Z,2.37
2017-09-04T10:54:34.276Z,1.87
2017-09-04T10:57:02.125Z,2.20
2017-09-04T10:59:29.968Z,2.00
2017-09-04T11:01:57.794Z,1.90
2017-09-04T11:04:25.560Z,2.00
2017-09-04T11:06:53.235Z,2.30
2017-09-04T11:09:20.953Z,2.17
2017-09-04T11:11:48.699Z,2.00
2017-09-04T11:14:16.445Z,2.57
2017-09-04T11:16:44.174Z,1.93
2017-09-04T11:19:11.842Z,2.20
2017-09-04T11:21:39.584Z,2.77
2017-09-04T11:24:07.330Z,1.90
2017-09-04T11:26:35.080Z,2.00
2017-09-04T11:29:02.826Z,2.20
2017-09-04T11:31:30.654Z,2.77
2017-09-04T11:33:58.333Z,1.93
2017-09-04T11:36:26.071Z,2.50
2017-09-04T11:38:53.806Z,2.30
2017-09-04T11:41:21.566Z,2.40
2017-09-04T11:43:49.198Z,2.00
2017-09-04T11:46:16.898Z,2.23
2017-09-04T11:48:44.601Z,2.20
2017-09-04T11:51:12.349Z,2.60
2017-09-04T11:53:40.097Z,1.97
2017-09-04T11:56:07.742Z,1.87
2017-09-04T11:58:35.377Z,2.50
2017-09-04T12:01:03.235Z,2.47
2017-09-04T12:03:30.880Z,2.40
2017-09-04T12:05:58.511Z,2.60
2017-09-04T12:08:26.275Z,2.63
2017-09-04T12:10:54.022Z,2.30
2017-09-04T12:13:21.666Z,2.40
2017-09-04T12:15:49.341Z,2.40
2017-09-04T12:18:17.041Z,2.30
2017-09-04T12:20:44.806Z,2.27
2017-09-04T12:23:12.552Z,2.23
2017-09-04T12:25:40.300Z,2.10
2017-09-04T12:28:08.047Z,2.57
2017-09-04T12:30:35.736Z,2.30
2017-09-04T12:33:03.410Z,2.10
2017-09-04T12:35:31.082Z,2.00
2017-09-04T12:37:58.830Z,3.00
2017-09-04T12:40:26.581Z,2.67
2017-09-04T12:42:54.224Z,2.40
2017-09-04T12:45:21.922Z,2.17
2017-09-04T12:47:49.575Z,2.23
2017-09-04T12:50:17.205Z,1.90
2017-09-04T12:52:44.878Z,1.83
2017-09-04T12:55:12.552Z,2.07
2017-09-04T12:57:40.196Z,2.23
2017-09-04T13:00:08.243Z,1.80
2017-09-04T13:02:35.950Z,2.60
2017-09-04T13:05:03.590Z,1.80
2017-09-04T13:07:31.390Z,2.43
2017-09-04T13:09:59.066Z,1.70
2017-09-04T13:12:26.745Z,1.97
2017-09-04T13:18:03.666Z,2.30
2017-09-04T13:23:47.467Z,2.27
2017-09-04T13:26:20.852Z,2.00
2017-09-04T13:28:54.122Z,1.80
2017-09-04T13:31:27.501Z,2.20
2017-09-04T13:36:59.853Z,2.13
2017-09-04T13:39:33.232Z,2.03
2017-09-04T13:42:15.933Z,2.13
2017-09-04T13:44:49.272Z,1.70
2017-09-04T13:47:26.989Z,2.10
2017-09-04T13:50:00.365Z,2.33
2017-09-04T13:55:36.866Z,1.87
2017-09-04T14:01:25.964Z,2.20
2017-09-04T14:04:09.323Z,2.37
2017-09-04T14:06:42.652Z,2.17
2017-09-04T14:12:17.746Z,1.67
2017-09-04T14:14:51.049Z,1.90
2017-09-04T14:17:38.557Z,2.20
2017-09-04T14:20:06.406Z,2.23
2017-09-04T14:22:34.153Z,1.43
2017-09-04T14:25:01.839Z,1.97
2017-09-04T14:27:29.647Z,2.30
2017-09-04T14:29:57.410Z,2.23
2017-09-04T14:32:25.145Z,1.60
2017-09-04T14:34:52.994Z,2.13
2017-09-04T14:37:20.741Z,2.13
2017-09-04T14:39:48.410Z,2.30
2017-09-04T14:42:16.237Z,2.00
2017-09-04T14:44:47.525Z,2.10
2017-09-04T14:47:16.906Z,1.90
2017-09-04T14:49:44.615Z,1.90
2017-09-04T14:52:12.299Z,2.20
2017-09-04T14:54:40.042Z,2.50
2017-09-04T14:57:07.735Z,1.93
2017-09-04T14:59:35.415Z,3.70
2017-09-04T15:02:03.230Z,2.53
2017-09-04T15:04:30.874Z,2.17
2017-09-04T15:06:58.622Z,2.07
2017-09-04T15:09:26.350Z,2.20
2017-09-04T15:11:54.119Z,2.20
2017-09-04T15:14:21.866Z,2.13
2017-09-04T15:16:49.716Z,2.63
2017-09-04T15:19:17.463Z,2.20
2017-09-04T15:21:45.139Z,2.23
2017-09-04T15:24:12.957Z,2.70
2017-09-04T15:26:40.704Z,2.40
2017-09-04T15:29:08.406Z,2.67
2017-09-04T15:31:36.199Z,2.30
2017-09-04T15:34:03.925Z,2.37
2017-09-04T15:36:31.615Z,2.90
2017-09-04T15:38:59.337Z,2.50
2017-09-04T15:41:27.015Z,2.57
2017-09-04T15:43:54.694Z,2.40
2017-09-04T15:46:22.684Z,2.30
2017-09-04T15:48:50.374Z,2.60
2017-09-04T15:51:18.054Z,5.90
2017-09-04T15:53:45.917Z,2.77
2017-09-04T15:56:13.674Z,2.60
2017-09-04T15:58:41.341Z,2.00
2017-09-04T16:01:09.168Z,3.20
2017-09-04T16:03:36.916Z,2.80
2017-09-04T16:06:09.373Z,2.33
2017-09-04T16:08:37.119Z,2.07
2017-09-04T16:11:05.790Z,2.70
2017-09-04T16:13:49.179Z,2.13
2017-09-04T16:16:17.872Z,2.30
2017-09-04T16:19:00.438Z,2.20
2017-09-04T16:24:33.330Z,2.50
2017-09-04T16:27:01.795Z,2.70
2017-09-04T16:32:52.070Z,1.80
2017-09-04T16:35:36.423Z,2.60
2017-09-04T16:38:09.066Z,3.10
2017-09-04T16:40:37.425Z,2.43
2017-09-04T16:46:15.621Z,2.27
2017-09-04T16:48:43.365Z,2.70
2017-09-04T16:51:13.494Z,1.90
2017-09-04T16:56:52.525Z,2.07
2017-09-04T16:59:20.328Z,2.10
2017-09-04T17:01:48.076Z,2.00
2017-09-04T17:04:15.760Z,2.20
2017-09-04T17:06:43.506Z,2.30
2017-09-04T17:09:12.032Z,1.83
2017-09-04T17:11:39.781Z,2.23
2017-09-04T17:14:07.509Z,1.57
2017-09-04T17:16:35.250Z,2.30
2017-09-04T17:19:05.451Z,3.33
2017-09-04T17:21:36.174Z,2.50
2017-09-04T17:24:05.684Z,2.57
2017-09-04T17:26:33.359Z,3.40
2017-09-04T17:29:01.179Z,2.20
2017-09-04T17:31:28.858Z,3.10
2017-09-04T17:33:56.547Z,3.00
2017-09-04T17:36:24.335Z,2.97
2017-09-04T17:38:52.014Z,2.43
2017-09-04T17:41:19.700Z,3.47
2017-09-04T17:43:47.466Z,2.60
2017-09-04T17:46:15.154Z,3.83
2017-09-04T17:48:42.831Z,3.30
2017-09-04T17:51:10.567Z,2.83
2017-09-04T17:53:38.345Z,3.20
2017-09-04T17:56:06.129Z,3.10
2017-09-04T17:58:33.918Z,2.80
2017-09-04T18:01:01.689Z,5.47
2017-09-04T18:03:29.374Z,8.67
2017-09-04T18:05:57.352Z,9.40
2017-09-04T18:08:25.042Z,7.57
2017-09-04T18:10:52.670Z,6.33
2017-09-04T18:13:20.451Z,5.10
2017-09-04T18:15:48.086Z,3.13
2017-09-04T18:18:15.777Z,4.27
2017-09-04T18:20:43.694Z,3.83
2017-09-04T18:23:11.375Z,3.93
2017-09-04T18:25:39.034Z,7.20
2017-09-04T18:28:06.742Z,7.63
2017-09-04T18:30:34.375Z,6.80
2017-09-04T18:33:02.100Z,10.83
2017-09-04T18:35:29.845Z,8.60
2017-09-04T18:37:57.529Z,7.63
2017-09-04T18:40:25.240Z,5.30
2017-09-04T18:42:53.090Z,10.70
2017-09-04T18:45:20.836Z,10.77
2017-09-04T18:47:48.584Z,8.60
2017-09-04T18:50:16.382Z,6.30
2017-09-04T18:52:44.082Z,5.87
2017-09-04T18:55:11.757Z,5.77
2017-09-04T18:57:39.604Z,5.93
2017-09-04T19:00:07.319Z,6.90
2017-09-04T19:02:35.018Z,4.23
2017-09-04T19:05:02.714Z,4.10
2017-09-04T19:07:30.410Z,4.27
2017-09-04T19:09:58.107Z,4.90
2017-09-04T19:12:25.956Z,4.67
2017-09-04T19:14:53.646Z,6.20
2017-09-04T19:17:21.501Z,7.27
2017-09-04T19:19:49.246Z,6.37
2017-09-04T19:22:16.921Z,5.40
2017-09-04T19:24:44.691Z,5.00
2017-09-04T19:27:12.540Z,4.00
2017-09-04T19:29:40.234Z,4.73
2017-09-04T19:32:07.914Z,6.90
2017-09-04T19:34:35.889Z,11.07
2017-09-04T19:37:05.410Z,12.60
2017-09-04T19:39:33.103Z,12.10
2017-09-04T19:42:00.866Z,9.70
2017-09-04T19:44:28.613Z,7.87
2017-09-04T19:46:56.365Z,7.43
2017-09-04T19:49:24.071Z,6.90
2017-09-04T19:51:51.757Z,6.00
2017-09-04T19:54:19.763Z,4.90
2017-09-04T19:56:47.557Z,4.33
2017-09-04T19:59:15.245Z,4.70
2017-09-04T20:01:42.938Z,4.40
2017-09-04T20:04:10.698Z,4.30
2017-09-04T20:06:38.391Z,3.53
2017-09-04T20:09:06.070Z,3.60
2017-09-04T20:11:33.802Z,4.33
2017-09-04T20:14:01.503Z,3.13
2017-09-04T20:16:29.271Z,3.13
2017-09-04T20:18:57.081Z,3.73
2017-09-04T20:21:24.770Z,3.40
2017-09-04T20:23:52.471Z,4.37
2017-09-04T20:26:20.198Z,3.47
2017-09-04T20:28:47.854Z,4.30
2017-09-04T20:31:15.507Z,4.10
2017-09-04T20:33:43.211Z,4.70
2017-09-04T20:36:10.901Z,4.50
2017-09-04T20:38:38.647Z,4.60
2017-09-04T20:41:06.338Z,6.10
2017-09-04T20:43:34.070Z,4.70
2017-09-04T20:46:01.716Z,5.03
2017-09-04T20:48:29.407Z,3.90
2017-09-04T20:50:57.066Z,4.30
2017-09-04T20:53:25.642Z,4.07
2017-09-04T20:55:53.391Z,3.50
2017-09-04T20:58:22.368Z,3.67
2017-09-04T21:00:50.338Z,4.50
2017-09-04T21:03:18.169Z,3.60
2017-09-04T21:05:45.858Z,2.77
2017-09-04T21:08:13.539Z,4.73
2017-09-04T21:10:41.274Z,3.60
2017-09-04T21:13:08.954Z,3.50
2017-09-04T21:15:36.658Z,3.83
2017-09-04T21:18:05.022Z,4.30
2017-09-04T21:20:32.708Z,3.73
2017-09-04T21:23:01.376Z,3.93
2017-09-04T21:25:29.109Z,3.37
2017-09-04T21:27:56.795Z,3.40
2017-09-04T21:30:24.490Z,3.60
2017-09-04T21:32:52.318Z,3.30
2017-09-04T21:35:20.010Z,2.83
2017-09-04T21:37:47.698Z,3.40
2017-09-04T21:40:15.437Z,3.43
2017-09-04T21:42:43.106Z,3.83
2017-09-04T21:45:10.897Z,4.20
2017-09-04T21:47:39.034Z,3.93
2017-09-04T21:50:07.087Z,3.73
2017-09-04T21:52:34.754Z,4.00
2017-09-04T21:55:02.434Z,3.40
2017-09-04T21:57:30.146Z,2.73
2017-09-04T21:59:57.830Z,3.50
2017-09-04T22:02:25.578Z,2.80
2017-09-04T22:04:53.219Z,3.43
2017-09-04T22:07:20.932Z,4.10
2017-09-04T22:09:48.781Z,3.40
2017-09-04T22:12:16.425Z,3.47
2017-09-04T22:14:44.071Z,3.50
2017-09-04T22:17:11.817Z,3.60
2017-09-04T22:19:39.464Z,3.60
2017-09-04T22:22:07.133Z,3.50
2017-09-04T22:24:34.870Z,3.70
2017-09-04T22:27:02.542Z,2.23
2017-09-04T22:29:30.221Z,3.00
2017-09-04T22:31:57.997Z,2.90
2017-09-04T22:34:25.671Z,3.33
2017-09-04T22:36:53.342Z,3.50
2017-09-04T22:39:21.135Z,3.70
2017-09-04T22:41:48.766Z,2.77
2017-09-04T22:44:16.397Z,3.97
2017-09-04T22:46:44.173Z,3.60
2017-09-04T22:49:11.850Z,4.07
2017-09-04T22:51:39.518Z,3.30
2017-09-04T22:54:07.270Z,3.43
2017-09-04T22:56:34.946Z,3.27
2017-09-04T22:59:03.215Z,2.97
2017-09-04T23:01:31.253Z,3.80
2017-09-04T23:03:58.921Z,3.17
2017-09-04T23:06:26.590Z,3.33
2017-09-04T23:08:54.515Z,3.17
2017-09-04T23:11:22.261Z,2.90
2017-09-04T23:13:49.904Z,3.80
2017-09-04T23:16:17.653Z,3.10
2017-09-04T23:18:45.325Z,3.33
2017-09-04T23:21:13.002Z,4.00
2017-09-04T23:23:40.688Z,3.70
2017-09-04T23:26:08.437Z,3.30
2017-09-04T23:28:36.082Z,3.20
2017-09-04T23:31:03.858Z,3.20
2017-09-04T23:33:31.530Z,3.63
2017-09-04T23:35:59.209Z,4.00
2017-09-04T23:38:26.910Z,3.97
2017-09-04T23:40:54.616Z,2.80
2017-09-04T23:43:22.266Z,3.87
2017-09-04T23:45:50.009Z,3.30
2017-09-04T23:48:17.646Z,3.33
2017-09-04T23:50:45.281Z,3.80
2017-09-04T23:53:13.044Z,4.37
2017-09-04T23:55:40.717Z,2.87
2017-09-04T23:58:08.436Z,4.17
